sensor_id;sensor_type;location;lat;lon;timestamp;P1;durP1;ratioP1;P2;durP2;ratioP2
71042;SDS011;58696;52.134;5.500;2023-11-21T00:01:11;12.82;;;5.95;;
71042;SDS011;58696;52.134;5.500;2023-11-21T00:03:38;24.58;;;6.53;;
71042;SDS011;58696;52.134;5.500;2023-11-21T00:06:07;39.88;;;5.50;;
71042;SDS011;58696;52.134;5.500;2023-11-21T00:08:36;81.60;;;5.88;;
71042;SDS011;58696;52.134;5.500;2023-11-21T00:11:03;13.90;;;5.07;;
71042;SDS011;58696;52.134;5.500;2023-11-21T00:13:33;13.82;;;4.00;;
71042;SDS011;58696;52.134;5.500;2023-11-21T00:16:01;62.38;;;4.50;;
71042;SDS011;58696;52.134;5.500;2023-11-21T00:18:27;7.47;;;3.40;;
71042;SDS011;58696;52.134;5.500;2023-11-21T00:20:56;6.30;;;4.57;;
71042;SDS011;58696;52.134;5.500;2023-11-21T00:23:25;12.40;;;5.65;;
71042;SDS011;58696;52.134;5.500;2023-11-21T00:25:56;9.45;;;5.75;;
71042;SDS011;58696;52.134;5.500;2023-11-21T00:28:23;6.78;;;5.10;;
71042;SDS011;58696;52.134;5.500;2023-11-21T00:30:51;7.45;;;4.28;;
71042;SDS011;58696;52.134;5.500;2023-11-21T00:33:20;6.88;;;4.38;;
71042;SDS011;58696;52.134;5.500;2023-11-21T00:35:46;7.93;;;4.38;;
71042;SDS011;58696;52.134;5.500;2023-11-21T00:38:15;6.18;;;4.70;;
71042;SDS011;58696;52.134;5.500;2023-11-21T00:40:45;10.63;;;5.60;;
71042;SDS011;58696;52.134;5.500;2023-11-21T00:43:14;7.68;;;5.25;;
71042;SDS011;58696;52.134;5.500;2023-11-21T00:45:41;11.68;;;5.05;;
71042;SDS011;58696;52.134;5.500;2023-11-21T00:48:11;19.48;;;5.85;;
71042;SDS011;58696;52.134;5.500;2023-11-21T00:50:39;9.90;;;5.38;;
71042;SDS011;58696;52.134;5.500;2023-11-21T00:53:08;16.48;;;4.80;;
71042;SDS011;58696;52.134;5.500;2023-11-21T00:55:35;7.93;;;4.78;;
71042;SDS011;58696;52.134;5.500;2023-11-21T00:58:06;16.33;;;5.50;;
71042;SDS011;58696;52.134;5.500;2023-11-21T01:00:33;11.48;;;3.63;;
71042;SDS011;58696;52.134;5.500;2023-11-21T01:03:00;18.83;;;4.05;;
71042;SDS011;58696;52.134;5.500;2023-11-21T01:05:29;10.40;;;3.78;;
71042;SDS011;58696;52.134;5.500;2023-11-21T01:07:55;37.65;;;4.13;;
71042;SDS011;58696;52.134;5.500;2023-11-21T01:10:22;18.00;;;3.60;;
71042;SDS011;58696;52.134;5.500;2023-11-21T01:12:49;31.80;;;4.32;;
71042;SDS011;58696;52.134;5.500;2023-11-21T01:15:15;27.80;;;3.63;;
71042;SDS011;58696;52.134;5.500;2023-11-21T01:17:47;20.45;;;3.40;;
71042;SDS011;58696;52.134;5.500;2023-11-21T01:20:13;12.13;;;3.78;;
71042;SDS011;58696;52.134;5.500;2023-11-21T01:22:40;19.38;;;3.30;;
71042;SDS011;58696;52.134;5.500;2023-11-21T01:25:07;42.67;;;4.50;;
71042;SDS011;58696;52.134;5.500;2023-11-21T01:27:40;33.13;;;4.70;;
71042;SDS011;58696;52.134;5.500;2023-11-21T01:30:07;19.00;;;3.80;;
71042;SDS011;58696;52.134;5.500;2023-11-21T01:32:38;17.98;;;3.80;;
71042;SDS011;58696;52.134;5.500;2023-11-21T01:35:06;21.67;;;3.53;;
71042;SDS011;58696;52.134;5.500;2023-11-21T01:37:33;9.30;;;4.47;;
71042;SDS011;58696;52.134;5.500;2023-11-21T01:40:02;10.13;;;4.75;;
71042;SDS011;58696;52.134;5.500;2023-11-21T01:42:34;7.57;;;5.10;;
71042;SDS011;58696;52.134;5.500;2023-11-21T01:45:01;7.13;;;4.45;;
71042;SDS011;58696;52.134;5.500;2023-11-21T01:47:31;11.82;;;4.97;;
71042;SDS011;58696;52.134;5.500;2023-11-21T01:49:59;6.40;;;4.28;;
71042;SDS011;58696;52.134;5.500;2023-11-21T01:52:29;7.82;;;4.57;;
71042;SDS011;58696;52.134;5.500;2023-11-21T01:54:58;7.78;;;4.47;;
71042;SDS011;58696;52.134;5.500;2023-11-21T01:59:53;6.72;;;4.75;;
71042;SDS011;58696;52.134;5.500;2023-11-21T02:02:25;6.05;;;4.75;;
71042;SDS011;58696;52.134;5.500;2023-11-21T02:04:54;7.28;;;4.90;;
71042;SDS011;58696;52.134;5.500;2023-11-21T02:07:23;6.88;;;4.78;;
71042;SDS011;58696;52.134;5.500;2023-11-21T02:09:52;7.97;;;5.18;;
71042;SDS011;58696;52.134;5.500;2023-11-21T02:12:19;8.68;;;4.85;;
71042;SDS011;58696;52.134;5.500;2023-11-21T02:14:48;6.60;;;5.35;;
71042;SDS011;58696;52.134;5.500;2023-11-21T02:17:14;6.13;;;5.50;;
71042;SDS011;58696;52.134;5.500;2023-11-21T02:19:44;6.00;;;5.18;;
71042;SDS011;58696;52.134;5.500;2023-11-21T02:22:11;7.55;;;5.85;;
71042;SDS011;58696;52.134;5.500;2023-11-21T02:24:41;12.82;;;6.50;;
71042;SDS011;58696;52.134;5.500;2023-11-21T02:27:12;11.05;;;6.32;;
71042;SDS011;58696;52.134;5.500;2023-11-21T02:29:47;9.73;;;5.47;;
71042;SDS011;58696;52.134;5.500;2023-11-21T02:32:15;7.93;;;6.45;;
71042;SDS011;58696;52.134;5.500;2023-11-21T02:34:47;11.32;;;5.80;;
71042;SDS011;58696;52.134;5.500;2023-11-21T02:37:14;16.05;;;5.30;;
71042;SDS011;58696;52.134;5.500;2023-11-21T02:39:40;11.30;;;6.10;;
71042;SDS011;58696;52.134;5.500;2023-11-21T02:42:11;7.55;;;5.55;;
71042;SDS011;58696;52.134;5.500;2023-11-21T02:44:40;8.90;;;6.25;;
71042;SDS011;58696;52.134;5.500;2023-11-21T02:47:09;7.57;;;5.20;;
71042;SDS011;58696;52.134;5.500;2023-11-21T02:49:36;14.32;;;6.30;;
71042;SDS011;58696;52.134;5.500;2023-11-21T02:52:07;14.55;;;6.30;;
71042;SDS011;58696;52.134;5.500;2023-11-21T02:54:36;11.15;;;6.00;;
71042;SDS011;58696;52.134;5.500;2023-11-21T02:57:05;11.40;;;5.63;;
71042;SDS011;58696;52.134;5.500;2023-11-21T02:59:36;12.20;;;6.13;;
71042;SDS011;58696;52.134;5.500;2023-11-21T03:02:05;10.02;;;5.93;;
71042;SDS011;58696;52.134;5.500;2023-11-21T03:04:35;8.68;;;5.60;;
71042;SDS011;58696;52.134;5.500;2023-11-21T03:07:01;15.85;;;6.32;;
71042;SDS011;58696;52.134;5.500;2023-11-21T03:09:31;8.70;;;5.00;;
71042;SDS011;58696;52.134;5.500;2023-11-21T03:11:58;8.07;;;5.63;;
71042;SDS011;58696;52.134;5.500;2023-11-21T03:14:24;9.13;;;5.38;;
71042;SDS011;58696;52.134;5.500;2023-11-21T03:16:51;7.35;;;5.40;;
71042;SDS011;58696;52.134;5.500;2023-11-21T03:19:17;8.75;;;6.00;;
71042;SDS011;58696;52.134;5.500;2023-11-21T03:21:46;10.15;;;6.00;;
71042;SDS011;58696;52.134;5.500;2023-11-21T03:24:15;8.55;;;5.40;;
71042;SDS011;58696;52.134;5.500;2023-11-21T03:26:48;7.93;;;5.20;;
71042;SDS011;58696;52.134;5.500;2023-11-21T03:29:15;7.47;;;4.93;;
71042;SDS011;58696;52.134;5.500;2023-11-21T03:31:41;12.00;;;5.40;;
71042;SDS011;58696;52.134;5.500;2023-11-21T03:34:11;10.05;;;5.38;;
71042;SDS011;58696;52.134;5.500;2023-11-21T03:36:44;10.27;;;5.10;;
71042;SDS011;58696;52.134;5.500;2023-11-21T03:39:15;13.95;;;5.22;;
71042;SDS011;58696;52.134;5.500;2023-11-21T03:41:41;12.57;;;5.47;;
71042;SDS011;58696;52.134;5.500;2023-11-21T03:44:10;11.20;;;5.60;;
71042;SDS011;58696;52.134;5.500;2023-11-21T03:46:37;8.18;;;5.20;;
71042;SDS011;58696;52.134;5.500;2023-11-21T03:49:06;7.25;;;5.10;;
71042;SDS011;58696;52.134;5.500;2023-11-21T03:51:34;9.20;;;5.22;;
71042;SDS011;58696;52.134;5.500;2023-11-21T03:54:03;6.43;;;5.07;;
71042;SDS011;58696;52.134;5.500;2023-11-21T03:56:30;9.02;;;5.63;;
71042;SDS011;58696;52.134;5.500;2023-11-21T03:58:57;8.15;;;4.85;;
71042;SDS011;58696;52.134;5.500;2023-11-21T04:01:24;13.75;;;4.88;;
71042;SDS011;58696;52.134;5.500;2023-11-21T04:03:51;8.00;;;5.00;;
71042;SDS011;58696;52.134;5.500;2023-11-21T04:06:18;8.82;;;4.95;;
71042;SDS011;58696;52.134;5.500;2023-11-21T04:08:47;7.28;;;4.65;;
71042;SDS011;58696;52.134;5.500;2023-11-21T04:11:16;10.50;;;5.13;;
71042;SDS011;58696;52.134;5.500;2023-11-21T04:13:45;14.45;;;4.95;;
71042;SDS011;58696;52.134;5.500;2023-11-21T04:16:15;7.65;;;4.97;;
71042;SDS011;58696;52.134;5.500;2023-11-21T04:18:45;10.15;;;5.45;;
71042;SDS011;58696;52.134;5.500;2023-11-21T04:21:11;11.00;;;5.18;;
71042;SDS011;58696;52.134;5.500;2023-11-21T04:23:40;11.93;;;5.10;;
71042;SDS011;58696;52.134;5.500;2023-11-21T04:26:07;14.35;;;5.57;;
71042;SDS011;58696;52.134;5.500;2023-11-21T04:28:35;13.02;;;5.07;;
71042;SDS011;58696;52.134;5.500;2023-11-21T04:31:02;10.32;;;5.43;;
71042;SDS011;58696;52.134;5.500;2023-11-21T04:33:31;12.25;;;5.70;;
71042;SDS011;58696;52.134;5.500;2023-11-21T04:35:58;10.13;;;5.80;;
71042;SDS011;58696;52.134;5.500;2023-11-21T04:38:24;12.13;;;5.18;;
71042;SDS011;58696;52.134;5.500;2023-11-21T04:40:51;10.05;;;5.78;;
71042;SDS011;58696;52.134;5.500;2023-11-21T04:43:20;10.13;;;5.93;;
71042;SDS011;58696;52.134;5.500;2023-11-21T04:45:49;10.57;;;5.97;;
71042;SDS011;58696;52.134;5.500;2023-11-21T04:48:16;10.57;;;5.70;;
71042;SDS011;58696;52.134;5.500;2023-11-21T04:50:48;9.07;;;5.97;;
71042;SDS011;58696;52.134;5.500;2023-11-21T04:53:15;13.73;;;6.15;;
71042;SDS011;58696;52.134;5.500;2023-11-21T04:55:41;14.07;;;5.72;;
71042;SDS011;58696;52.134;5.500;2023-11-21T04:58:10;13.20;;;6.38;;
71042;SDS011;58696;52.134;5.500;2023-11-21T05:00:38;16.13;;;6.47;;
71042;SDS011;58696;52.134;5.500;2023-11-21T05:03:04;11.38;;;5.30;;
71042;SDS011;58696;52.134;5.500;2023-11-21T05:05:34;11.88;;;6.20;;
71042;SDS011;58696;52.134;5.500;2023-11-21T05:08:03;11.25;;;5.43;;
71042;SDS011;58696;52.134;5.500;2023-11-21T05:10:30;15.65;;;6.45;;
71042;SDS011;58696;52.134;5.500;2023-11-21T05:13:01;8.68;;;5.53;;
71042;SDS011;58696;52.134;5.500;2023-11-21T05:15:28;11.80;;;6.05;;
71042;SDS011;58696;52.134;5.500;2023-11-21T05:17:55;15.93;;;6.60;;
71042;SDS011;58696;52.134;5.500;2023-11-21T05:20:26;8.68;;;5.55;;
71042;SDS011;58696;52.134;5.500;2023-11-21T05:22:53;11.93;;;6.43;;
71042;SDS011;58696;52.134;5.500;2023-11-21T05:25:22;13.25;;;6.25;;
71042;SDS011;58696;52.134;5.500;2023-11-21T05:27:48;12.07;;;6.20;;
71042;SDS011;58696;52.134;5.500;2023-11-21T05:30:18;11.32;;;6.13;;
71042;SDS011;58696;52.134;5.500;2023-11-21T05:32:47;11.13;;;6.15;;
71042;SDS011;58696;52.134;5.500;2023-11-21T05:35:19;11.82;;;6.13;;
71042;SDS011;58696;52.134;5.500;2023-11-21T05:37:48;12.65;;;6.53;;
71042;SDS011;58696;52.134;5.500;2023-11-21T05:40:14;11.45;;;6.15;;
71042;SDS011;58696;52.134;5.500;2023-11-21T05:42:44;15.55;;;6.57;;
71042;SDS011;58696;52.134;5.500;2023-11-21T05:45:13;9.85;;;5.72;;
71042;SDS011;58696;52.134;5.500;2023-11-21T05:47:45;14.02;;;6.07;;
71042;SDS011;58696;52.134;5.500;2023-11-21T05:50:14;17.92;;;6.50;;
71042;SDS011;58696;52.134;5.500;2023-11-21T05:52:45;10.98;;;6.18;;
71042;SDS011;58696;52.134;5.500;2023-11-21T05:57:42;13.00;;;5.90;;
71042;SDS011;58696;52.134;5.500;2023-11-21T06:00:11;16.10;;;6.38;;
71042;SDS011;58696;52.134;5.500;2023-11-21T06:02:50;19.55;;;6.25;;
71042;SDS011;58696;52.134;5.500;2023-11-21T06:05:22;10.93;;;6.55;;
71042;SDS011;58696;52.134;5.500;2023-11-21T06:07:53;12.75;;;6.22;;
71042;SDS011;58696;52.134;5.500;2023-11-21T06:10:21;18.48;;;6.68;;
71042;SDS011;58696;52.134;5.500;2023-11-21T06:12:53;17.65;;;7.05;;
71042;SDS011;58696;52.134;5.500;2023-11-21T06:15:20;21.02;;;6.40;;
71042;SDS011;58696;52.134;5.500;2023-11-21T06:17:48;15.50;;;6.70;;
71042;SDS011;58696;52.134;5.500;2023-11-21T06:20:21;14.40;;;5.90;;
71042;SDS011;58696;52.134;5.500;2023-11-21T06:25:17;15.55;;;5.85;;
71042;SDS011;58696;52.134;5.500;2023-11-21T06:27:47;12.32;;;6.82;;
71042;SDS011;58696;52.134;5.500;2023-11-21T06:30:18;12.82;;;6.18;;
71042;SDS011;58696;52.134;5.500;2023-11-21T06:32:46;12.43;;;6.60;;
71042;SDS011;58696;52.134;5.500;2023-11-21T06:35:14;15.10;;;6.30;;
71042;SDS011;58696;52.134;5.500;2023-11-21T06:37:43;10.85;;;5.80;;
71042;SDS011;58696;52.134;5.500;2023-11-21T06:40:18;10.20;;;6.13;;
71042;SDS011;58696;52.134;5.500;2023-11-21T06:42:48;12.05;;;5.80;;
71042;SDS011;58696;52.134;5.500;2023-11-21T06:45:15;13.00;;;6.77;;
71042;SDS011;58696;52.134;5.500;2023-11-21T06:47:42;17.58;;;6.03;;
71042;SDS011;58696;52.134;5.500;2023-11-21T06:50:09;11.90;;;6.07;;
71042;SDS011;58696;52.134;5.500;2023-11-21T06:52:36;14.63;;;5.82;;
71042;SDS011;58696;52.134;5.500;2023-11-21T06:55:05;13.57;;;6.32;;
71042;SDS011;58696;52.134;5.500;2023-11-21T06:57:35;13.07;;;6.20;;
71042;SDS011;58696;52.134;5.500;2023-11-21T07:00:02;9.90;;;5.63;;
71042;SDS011;58696;52.134;5.500;2023-11-21T07:02:29;14.07;;;6.37;;
71042;SDS011;58696;52.134;5.500;2023-11-21T07:04:56;10.02;;;6.03;;
71042;SDS011;58696;52.134;5.500;2023-11-21T07:07:22;10.82;;;6.22;;
71042;SDS011;58696;52.134;5.500;2023-11-21T07:09:49;10.00;;;6.15;;
71042;SDS011;58696;52.134;5.500;2023-11-21T07:12:18;13.90;;;6.13;;
71042;SDS011;58696;52.134;5.500;2023-11-21T07:14:45;14.90;;;5.90;;
71042;SDS011;58696;52.134;5.500;2023-11-21T07:17:14;10.00;;;5.90;;
71042;SDS011;58696;52.134;5.500;2023-11-21T07:19:42;22.20;;;6.68;;
71042;SDS011;58696;52.134;5.500;2023-11-21T07:22:09;13.85;;;6.35;;
71042;SDS011;58696;52.134;5.500;2023-11-21T07:24:36;14.30;;;6.32;;
71042;SDS011;58696;52.134;5.500;2023-11-21T07:27:03;12.50;;;6.25;;
71042;SDS011;58696;52.134;5.500;2023-11-21T07:29:30;14.75;;;6.95;;
71042;SDS011;58696;52.134;5.500;2023-11-21T07:32:00;11.85;;;5.55;;
71042;SDS011;58696;52.134;5.500;2023-11-21T07:34:27;8.27;;;5.22;;
71042;SDS011;58696;52.134;5.500;2023-11-21T07:36:54;12.73;;;5.70;;
71042;SDS011;58696;52.134;5.500;2023-11-21T07:39:22;14.32;;;5.97;;
71042;SDS011;58696;52.134;5.500;2023-11-21T07:41:51;12.13;;;5.68;;
71042;SDS011;58696;52.134;5.500;2023-11-21T07:44:18;10.45;;;5.43;;
71042;SDS011;58696;52.134;5.500;2023-11-21T07:46:50;10.15;;;5.18;;
71042;SDS011;58696;52.134;5.500;2023-11-21T07:49:17;9.80;;;5.50;;
71042;SDS011;58696;52.134;5.500;2023-11-21T07:51:47;12.40;;;5.05;;
71042;SDS011;58696;52.134;5.500;2023-11-21T07:54:18;16.27;;;5.35;;
71042;SDS011;58696;52.134;5.500;2023-11-21T07:56:47;11.90;;;5.95;;
71042;SDS011;58696;52.134;5.500;2023-11-21T07:59:14;9.88;;;5.25;;
71042;SDS011;58696;52.134;5.500;2023-11-21T08:01:46;15.43;;;5.30;;
71042;SDS011;58696;52.134;5.500;2023-11-21T08:04:13;12.38;;;5.45;;
71042;SDS011;58696;52.134;5.500;2023-11-21T08:06:45;12.38;;;5.38;;
71042;SDS011;58696;52.134;5.500;2023-11-21T08:09:16;11.02;;;5.45;;
71042;SDS011;58696;52.134;5.500;2023-11-21T08:11:44;10.80;;;5.60;;
71042;SDS011;58696;52.134;5.500;2023-11-21T08:14:13;6.90;;;5.15;;
71042;SDS011;58696;52.134;5.500;2023-11-21T08:16:41;7.88;;;5.60;;
71042;SDS011;58696;52.134;5.500;2023-11-21T08:19:11;15.63;;;5.50;;
71042;SDS011;58696;52.134;5.500;2023-11-21T08:21:37;9.98;;;4.82;;
71042;SDS011;58696;52.134;5.500;2023-11-21T08:24:07;8.82;;;4.60;;
71042;SDS011;58696;52.134;5.500;2023-11-21T08:26:37;6.65;;;4.30;;
71042;SDS011;58696;52.134;5.500;2023-11-21T08:29:06;13.52;;;4.93;;
71042;SDS011;58696;52.134;5.500;2023-11-21T08:31:35;7.38;;;4.00;;
71042;SDS011;58696;52.134;5.500;2023-11-21T08:34:05;13.85;;;4.95;;
71042;SDS011;58696;52.134;5.500;2023-11-21T08:36:35;11.05;;;4.90;;
71042;SDS011;58696;52.134;5.500;2023-11-21T08:39:03;13.35;;;5.50;;
71042;SDS011;58696;52.134;5.500;2023-11-21T08:41:31;8.80;;;4.65;;
71042;SDS011;58696;52.134;5.500;2023-11-21T08:44:03;11.82;;;5.35;;
71042;SDS011;58696;52.134;5.500;2023-11-21T08:46:36;11.52;;;5.90;;
71042;SDS011;58696;52.134;5.500;2023-11-21T08:49:03;14.00;;;5.90;;
71042;SDS011;58696;52.134;5.500;2023-11-21T08:51:30;9.48;;;5.32;;
71042;SDS011;58696;52.134;5.500;2023-11-21T08:53:57;12.40;;;6.45;;
71042;SDS011;58696;52.134;5.500;2023-11-21T08:56:31;12.52;;;5.72;;
71042;SDS011;58696;52.134;5.500;2023-11-21T08:58:57;15.90;;;6.18;;
71042;SDS011;58696;52.134;5.500;2023-11-21T09:01:24;18.63;;;7.18;;
71042;SDS011;58696;52.134;5.500;2023-11-21T09:03:51;13.15;;;7.03;;
71042;SDS011;58696;52.134;5.500;2023-11-21T09:06:18;16.55;;;7.45;;
71042;SDS011;58696;52.134;5.500;2023-11-21T09:08:49;17.95;;;7.90;;
71042;SDS011;58696;52.134;5.500;2023-11-21T09:11:16;15.15;;;7.70;;
71042;SDS011;58696;52.134;5.500;2023-11-21T09:13:43;14.48;;;7.70;;
71042;SDS011;58696;52.134;5.500;2023-11-21T09:16:15;20.38;;;8.63;;
71042;SDS011;58696;52.134;5.500;2023-11-21T09:18:46;16.45;;;9.00;;
71042;SDS011;58696;52.134;5.500;2023-11-21T09:21:15;12.18;;;8.13;;
71042;SDS011;58696;52.134;5.500;2023-11-21T09:23:44;12.88;;;7.63;;
71042;SDS011;58696;52.134;5.500;2023-11-21T09:26:16;14.82;;;8.07;;
71042;SDS011;58696;52.134;5.500;2023-11-21T09:28:43;14.32;;;8.55;;
71042;SDS011;58696;52.134;5.500;2023-11-21T09:31:14;13.73;;;8.15;;
71042;SDS011;58696;52.134;5.500;2023-11-21T09:33:43;12.73;;;8.13;;
71042;SDS011;58696;52.134;5.500;2023-11-21T09:36:13;18.03;;;7.83;;
71042;SDS011;58696;52.134;5.500;2023-11-21T09:38:41;11.93;;;7.97;;
71042;SDS011;58696;52.134;5.500;2023-11-21T09:41:10;12.77;;;8.03;;
71042;SDS011;58696;52.134;5.500;2023-11-21T09:43:45;11.68;;;7.88;;
71042;SDS011;58696;52.134;5.500;2023-11-21T09:46:13;10.45;;;7.03;;
71042;SDS011;58696;52.134;5.500;2023-11-21T09:48:50;12.55;;;7.72;;
71042;SDS011;58696;52.134;5.500;2023-11-21T09:51:20;15.48;;;7.93;;
71042;SDS011;58696;52.134;5.500;2023-11-21T09:53:53;10.73;;;7.13;;
71042;SDS011;58696;52.134;5.500;2023-11-21T09:56:24;9.63;;;7.13;;
71042;SDS011;58696;52.134;5.500;2023-11-21T09:58:53;15.13;;;6.78;;
71042;SDS011;58696;52.134;5.500;2023-11-21T10:01:20;11.85;;;7.10;;
71042;SDS011;58696;52.134;5.500;2023-11-21T10:03:50;8.82;;;6.03;;
71042;SDS011;58696;52.134;5.500;2023-11-21T10:06:19;9.73;;;5.80;;
71042;SDS011;58696;52.134;5.500;2023-11-21T10:08:46;11.00;;;6.28;;
71042;SDS011;58696;52.134;5.500;2023-11-21T10:11:23;11.35;;;6.63;;
71042;SDS011;58696;52.134;5.500;2023-11-21T10:13:56;14.23;;;7.03;;
71042;SDS011;58696;52.134;5.500;2023-11-21T10:16:29;9.88;;;6.28;;
71042;SDS011;58696;52.134;5.500;2023-11-21T10:18:55;11.27;;;7.10;;
71042;SDS011;58696;52.134;5.500;2023-11-21T10:21:41;12.85;;;6.75;;
71042;SDS011;58696;52.134;5.500;2023-11-21T10:24:10;9.55;;;6.70;;
71042;SDS011;58696;52.134;5.500;2023-11-21T10:26:38;13.52;;;7.25;;
71042;SDS011;58696;52.134;5.500;2023-11-21T10:29:18;9.02;;;6.20;;
71042;SDS011;58696;52.134;5.500;2023-11-21T10:31:51;8.45;;;5.95;;
71042;SDS011;58696;52.134;5.500;2023-11-21T10:34:21;10.82;;;7.03;;
71042;SDS011;58696;52.134;5.500;2023-11-21T10:36:50;9.48;;;6.05;;
71042;SDS011;58696;52.134;5.500;2023-11-21T10:39:18;7.47;;;5.88;;
71042;SDS011;58696;52.134;5.500;2023-11-21T10:41:54;7.40;;;6.13;;
71042;SDS011;58696;52.134;5.500;2023-11-21T10:44:22;10.75;;;6.80;;
71042;SDS011;58696;52.134;5.500;2023-11-21T10:46:51;8.32;;;5.53;;
71042;SDS011;58696;52.134;5.500;2023-11-21T10:49:24;6.57;;;5.30;;
71042;SDS011;58696;52.134;5.500;2023-11-21T10:51:52;7.97;;;5.57;;
71042;SDS011;58696;52.134;5.500;2023-11-21T10:54:22;9.52;;;5.88;;
71042;SDS011;58696;52.134;5.500;2023-11-21T10:56:59;8.52;;;6.05;;
71042;SDS011;58696;52.134;5.500;2023-11-21T10:59:29;8.88;;;6.30;;
71042;SDS011;58696;52.134;5.500;2023-11-21T11:01:58;9.23;;;6.53;;
71042;SDS011;58696;52.134;5.500;2023-11-21T11:04:30;9.27;;;5.55;;
71042;SDS011;58696;52.134;5.500;2023-11-21T11:06:57;10.50;;;6.35;;
71042;SDS011;58696;52.134;5.500;2023-11-21T11:09:30;9.32;;;5.75;;
71042;SDS011;58696;52.134;5.500;2023-11-21T11:12:01;9.52;;;6.25;;
71042;SDS011;58696;52.134;5.500;2023-11-21T11:14:33;12.85;;;6.80;;
71042;SDS011;58696;52.134;5.500;2023-11-21T11:17:02;14.98;;;7.72;;
71042;SDS011;58696;52.134;5.500;2023-11-21T11:19:34;11.73;;;7.05;;
71042;SDS011;58696;52.134;5.500;2023-11-21T11:32:43;11.15;;;7.07;;
71042;SDS011;58696;52.134;5.500;2023-11-21T11:35:33;10.93;;;6.72;;
71042;SDS011;58696;52.134;5.500;2023-11-21T11:38:04;9.68;;;6.30;;
71042;SDS011;58696;52.134;5.500;2023-11-21T11:40:46;14.20;;;8.07;;
71042;SDS011;58696;52.134;5.500;2023-11-21T11:43:24;8.55;;;6.10;;
71042;SDS011;58696;52.134;5.500;2023-11-21T11:45:58;8.98;;;5.85;;
71042;SDS011;58696;52.134;5.500;2023-11-21T11:48:26;12.55;;;7.80;;
71042;SDS011;58696;52.134;5.500;2023-11-21T11:51:03;11.90;;;7.88;;
71042;SDS011;58696;52.134;5.500;2023-11-21T11:53:36;14.52;;;9.13;;
71042;SDS011;58696;52.134;5.500;2023-11-21T11:56:48;15.40;;;9.93;;
71042;SDS011;58696;52.134;5.500;2023-11-21T11:59:00;13.98;;;9.10;;
71042;SDS011;58696;52.134;5.500;2023-11-21T12:01:32;13.00;;;8.93;;
71042;SDS011;58696;52.134;5.500;2023-11-21T12:06:59;15.95;;;9.07;;
71042;SDS011;58696;52.134;5.500;2023-11-21T12:09:28;13.98;;;7.53;;
71042;SDS011;58696;52.134;5.500;2023-11-21T12:11:57;12.88;;;7.63;;
71042;SDS011;58696;52.134;5.500;2023-11-21T12:14:27;11.05;;;7.47;;
71042;SDS011;58696;52.134;5.500;2023-11-21T12:17:01;9.35;;;6.45;;
71042;SDS011;58696;52.134;5.500;2023-11-21T12:19:33;14.38;;;7.30;;
71042;SDS011;58696;52.134;5.500;2023-11-21T12:22:02;11.32;;;7.18;;
71042;SDS011;58696;52.134;5.500;2023-11-21T12:24:29;17.45;;;9.27;;
71042;SDS011;58696;52.134;5.500;2023-11-21T12:26:55;11.52;;;7.85;;
71042;SDS011;58696;52.134;5.500;2023-11-21T12:29:22;10.93;;;7.90;;
71042;SDS011;58696;52.134;5.500;2023-11-21T12:31:53;12.23;;;7.70;;
71042;SDS011;58696;52.134;5.500;2023-11-21T12:34:22;14.40;;;8.75;;
71042;SDS011;58696;52.134;5.500;2023-11-21T12:36:49;9.80;;;7.43;;
71042;SDS011;58696;52.134;5.500;2023-11-21T12:39:23;11.57;;;8.32;;
71042;SDS011;58696;52.134;5.500;2023-11-21T12:41:52;13.57;;;8.60;;
71042;SDS011;58696;52.134;5.500;2023-11-21T12:44:21;13.23;;;7.40;;
71042;SDS011;58696;52.134;5.500;2023-11-21T12:46:50;10.55;;;7.03;;
71042;SDS011;58696;52.134;5.500;2023-11-21T12:49:21;10.75;;;7.85;;
71042;SDS011;58696;52.134;5.500;2023-11-21T12:51:48;12.70;;;7.13;;
71042;SDS011;58696;52.134;5.500;2023-11-21T12:54:17;13.15;;;7.70;;
71042;SDS011;58696;52.134;5.500;2023-11-21T12:56:45;10.63;;;7.40;;
71042;SDS011;58696;52.134;5.500;2023-11-21T12:59:18;12.88;;;7.53;;
71042;SDS011;58696;52.134;5.500;2023-11-21T13:01:49;10.18;;;6.55;;
71042;SDS011;58696;52.134;5.500;2023-11-21T13:04:18;9.27;;;6.88;;
71042;SDS011;58696;52.134;5.500;2023-11-21T13:06:55;7.55;;;6.13;;
71042;SDS011;58696;52.134;5.500;2023-11-21T13:09:32;9.25;;;6.00;;
71042;SDS011;58696;52.134;5.500;2023-11-21T13:12:01;7.43;;;5.70;;
71042;SDS011;58696;52.134;5.500;2023-11-21T13:14:31;7.03;;;5.85;;
71042;SDS011;58696;52.134;5.500;2023-11-21T13:16:58;7.18;;;5.40;;
71042;SDS011;58696;52.134;5.500;2023-11-21T13:19:24;6.22;;;4.85;;
71042;SDS011;58696;52.134;5.500;2023-11-21T13:21:58;7.13;;;5.03;;
71042;SDS011;58696;52.134;5.500;2023-11-21T13:24:32;5.85;;;4.28;;
71042;SDS011;58696;52.134;5.500;2023-11-21T13:26:59;6.05;;;4.45;;
71042;SDS011;58696;52.134;5.500;2023-11-21T13:29:28;7.28;;;4.10;;
71042;SDS011;58696;52.134;5.500;2023-11-21T13:31:55;6.78;;;4.32;;
71042;SDS011;58696;52.134;5.500;2023-11-21T13:34:22;4.25;;;3.05;;
71042;SDS011;58696;52.134;5.500;2023-11-21T13:36:57;7.10;;;3.30;;
71042;SDS011;58696;52.134;5.500;2023-11-21T13:39:27;4.57;;;3.58;;
71042;SDS011;58696;52.134;5.500;2023-11-21T13:41:58;5.28;;;3.33;;
71042;SDS011;58696;52.134;5.500;2023-11-21T13:44:29;4.53;;;2.83;;
71042;SDS011;58696;52.134;5.500;2023-11-21T13:47:06;4.03;;;3.00;;
71042;SDS011;58696;52.134;5.500;2023-11-21T13:49:35;4.13;;;2.90;;
71042;SDS011;58696;52.134;5.500;2023-11-21T13:52:08;5.50;;;3.80;;
71042;SDS011;58696;52.134;5.500;2023-11-21T13:54:37;6.10;;;5.03;;
71042;SDS011;58696;52.134;5.500;2023-11-21T13:57:06;10.32;;;5.72;;
71042;SDS011;58696;52.134;5.500;2023-11-21T13:59:33;7.40;;;5.10;;
71042;SDS011;58696;52.134;5.500;2023-11-21T14:01:59;10.13;;;6.43;;
71042;SDS011;58696;52.134;5.500;2023-11-21T14:04:38;16.77;;;8.65;;
71042;SDS011;58696;52.134;5.500;2023-11-21T14:07:34;13.63;;;7.22;;
71042;SDS011;58696;52.134;5.500;2023-11-21T14:10:06;11.15;;;8.45;;
71042;SDS011;58696;52.134;5.500;2023-11-21T14:12:40;12.77;;;7.78;;
71042;SDS011;58696;52.134;5.500;2023-11-21T14:15:09;11.00;;;7.45;;
71042;SDS011;58696;52.134;5.500;2023-11-21T14:17:38;12.60;;;8.57;;
71042;SDS011;58696;52.134;5.500;2023-11-21T14:20:07;13.27;;;9.50;;
71042;SDS011;58696;52.134;5.500;2023-11-21T14:22:42;14.27;;;9.63;;
71042;SDS011;58696;52.134;5.500;2023-11-21T14:25:11;11.52;;;7.68;;
71042;SDS011;58696;52.134;5.500;2023-11-21T14:27:38;11.77;;;8.73;;
71042;SDS011;58696;52.134;5.500;2023-11-21T14:30:05;12.35;;;8.68;;
71042;SDS011;58696;52.134;5.500;2023-11-21T14:32:34;13.00;;;8.57;;
71042;SDS011;58696;52.134;5.500;2023-11-21T14:35:01;12.13;;;9.25;;
71042;SDS011;58696;52.134;5.500;2023-11-21T14:37:31;12.40;;;8.60;;
71042;SDS011;58696;52.134;5.500;2023-11-21T14:39:58;11.98;;;8.02;;
71042;SDS011;58696;52.134;5.500;2023-11-21T14:42:24;16.90;;;11.45;;
71042;SDS011;58696;52.134;5.500;2023-11-21T14:44:55;17.63;;;11.35;;
71042;SDS011;58696;52.134;5.500;2023-11-21T14:47:29;21.10;;;12.20;;
71042;SDS011;58696;52.134;5.500;2023-11-21T14:49:56;19.27;;;11.80;;
71042;SDS011;58696;52.134;5.500;2023-11-21T14:52:26;18.00;;;10.98;;
71042;SDS011;58696;52.134;5.500;2023-11-21T14:55:04;17.17;;;10.95;;
71042;SDS011;58696;52.134;5.500;2023-11-21T14:57:57;16.27;;;9.88;;
71042;SDS011;58696;52.134;5.500;2023-11-21T15:00:30;13.65;;;9.52;;
71042;SDS011;58696;52.134;5.500;2023-11-21T15:03:18;11.47;;;8.63;;
71042;SDS011;58696;52.134;5.500;2023-11-21T15:05:59;14.25;;;9.73;;
71042;SDS011;58696;52.134;5.500;2023-11-21T15:08:52;14.68;;;9.43;;
71042;SDS011;58696;52.134;5.500;2023-11-21T15:11:25;14.73;;;10.02;;
71042;SDS011;58696;52.134;5.500;2023-11-21T15:13:57;13.50;;;10.40;;